sensor_id;sensor_type;location;lat;lon;timestamp;P1;durP1;ratioP1;P2;durP2;ratioP2
26311;SDS011;14019;56.964;24.016;2023-02-23T00:02:24;45.78;;;15.90;;
26311;SDS011;14019;56.964;24.016;2023-02-23T00:05:10;50.58;;;15.73;;
26311;SDS011;14019;56.964;24.016;2023-02-23T00:07:57;49.42;;;15.82;;
26311;SDS011;14019;56.964;24.016;2023-02-23T00:11:10;51.45;;;16.92;;
26311;SDS011;14019;56.964;24.016;2023-02-23T00:13:57;43.83;;;16.17;;
26311;SDS011;14019;56.964;24.016;2023-02-23T00:16:45;46.25;;;15.55;;
26311;SDS011;14019;56.964;24.016;2023-02-23T00:20:23;43.38;;;15.50;;
26311;SDS011;14019;56.964;24.016;2023-02-23T00:23:11;49.60;;;16.25;;
26311;SDS011;14019;56.964;24.016;2023-02-23T00:25:59;49.88;;;16.67;;
26311;SDS011;14019;56.964;24.016;2023-02-23T00:28:48;49.72;;;16.63;;
26311;SDS011;14019;56.964;24.016;2023-02-23T00:31:38;54.25;;;16.77;;
26311;SDS011;14019;56.964;24.016;2023-02-23T00:34:24;44.20;;;15.48;;
26311;SDS011;14019;56.964;24.016;2023-02-23T00:37:10;47.17;;;15.30;;
26311;SDS011;14019;56.964;24.016;2023-02-23T00:39:56;50.08;;;16.30;;
26311;SDS011;14019;56.964;24.016;2023-02-23T00:42:45;48.47;;;16.60;;
26311;SDS011;14019;56.964;24.016;2023-02-23T00:45:33;57.65;;;17.35;;
26311;SDS011;14019;56.964;24.016;2023-02-23T00:48:20;47.28;;;15.20;;
26311;SDS011;14019;56.964;24.016;2023-02-23T00:51:06;52.08;;;17.17;;
26311;SDS011;14019;56.964;24.016;2023-02-23T00:53:53;54.28;;;17.55;;
26311;SDS011;14019;56.964;24.016;2023-02-23T00:56:39;48.00;;;16.15;;
26311;SDS011;14019;56.964;24.016;2023-02-23T00:59:26;50.70;;;16.42;;
26311;SDS011;14019;56.964;24.016;2023-02-23T01:02:13;52.42;;;17.20;;
26311;SDS011;14019;56.964;24.016;2023-02-23T01:08:11;53.75;;;16.63;;
26311;SDS011;14019;56.964;24.016;2023-02-23T01:10:57;50.20;;;17.08;;
26311;SDS011;14019;56.964;24.016;2023-02-23T01:13:43;45.65;;;16.67;;
26311;SDS011;14019;56.964;24.016;2023-02-23T01:17:18;53.10;;;15.75;;
26311;SDS011;14019;56.964;24.016;2023-02-23T01:20:05;52.05;;;16.08;;
26311;SDS011;14019;56.964;24.016;2023-02-23T01:23:02;54.30;;;16.95;;
26311;SDS011;14019;56.964;24.016;2023-02-23T01:25:49;56.00;;;18.17;;
26311;SDS011;14019;56.964;24.016;2023-02-23T01:28:35;54.03;;;17.92;;
26311;SDS011;14019;56.964;24.016;2023-02-23T01:32:35;52.13;;;16.63;;
26311;SDS011;14019;56.964;24.016;2023-02-23T01:56:06;39.05;;;13.77;;
26311;SDS011;14019;56.964;24.016;2023-02-23T02:02:06;44.30;;;14.52;;
26311;SDS011;14019;56.964;24.016;2023-02-23T02:04:53;43.75;;;13.57;;
26311;SDS011;14019;56.964;24.016;2023-02-23T02:07:46;43.77;;;15.63;;
26311;SDS011;14019;56.964;24.016;2023-02-23T02:10:36;45.45;;;15.52;;
26311;SDS011;14019;56.964;24.016;2023-02-23T02:13:29;46.08;;;15.13;;
26311;SDS011;14019;56.964;24.016;2023-02-23T02:41:51;42.00;;;13.43;;
26311;SDS011;14019;56.964;24.016;2023-02-23T02:44:40;41.42;;;14.07;;
26311;SDS011;14019;56.964;24.016;2023-02-23T02:48:38;44.72;;;13.88;;
26311;SDS011;14019;56.964;24.016;2023-02-23T02:51:06;37.40;;;14.00;;
26311;SDS011;14019;56.964;24.016;2023-02-23T02:57:16;36.50;;;13.00;;
26311;SDS011;14019;56.964;24.016;2023-02-23T03:00:05;40.65;;;13.38;;
26311;SDS011;14019;56.964;24.016;2023-02-23T03:06:47;39.65;;;12.70;;
26311;SDS011;14019;56.964;24.016;2023-02-23T03:17:07;37.65;;;12.60;;
26311;SDS011;14019;56.964;24.016;2023-02-23T03:25:25;41.90;;;12.90;;
26311;SDS011;14019;56.964;24.016;2023-02-23T03:28:48;44.38;;;13.18;;
26311;SDS011;14019;56.964;24.016;2023-02-23T03:32:32;38.45;;;12.13;;
26311;SDS011;14019;56.964;24.016;2023-02-23T03:36:02;37.65;;;13.25;;
26311;SDS011;14019;56.964;24.016;2023-02-23T03:42:34;35.03;;;13.43;;
26311;SDS011;14019;56.964;24.016;2023-02-23T03:45:41;34.72;;;12.00;;
26311;SDS011;14019;56.964;24.016;2023-02-23T03:48:49;41.80;;;13.48;;
26311;SDS011;14019;56.964;24.016;2023-02-23T03:51:58;36.70;;;12.60;;
26311;SDS011;14019;56.964;24.016;2023-02-23T03:55:12;39.75;;;13.25;;
26311;SDS011;14019;56.964;24.016;2023-02-23T03:58:22;39.42;;;13.90;;
26311;SDS011;14019;56.964;24.016;2023-02-23T04:01:55;42.75;;;14.25;;
26311;SDS011;14019;56.964;24.016;2023-02-23T04:05:02;37.40;;;13.18;;
26311;SDS011;14019;56.964;24.016;2023-02-23T04:08:13;39.70;;;12.70;;
26311;SDS011;14019;56.964;24.016;2023-02-23T04:11:24;45.35;;;13.80;;
26311;SDS011;14019;56.964;24.016;2023-02-23T04:14:38;48.22;;;14.00;;
26311;SDS011;14019;56.964;24.016;2023-02-23T04:17:39;32.90;;;10.23;;
26311;SDS011;14019;56.964;24.016;2023-02-23T04:20:26;39.05;;;13.45;;
26311;SDS011;14019;56.964;24.016;2023-02-23T04:23:12;48.08;;;14.52;;
26311;SDS011;14019;56.964;24.016;2023-02-23T04:25:58;41.88;;;14.30;;
26311;SDS011;14019;56.964;24.016;2023-02-23T04:28:45;42.10;;;15.30;;
26311;SDS011;14019;56.964;24.016;2023-02-23T04:31:30;43.22;;;14.18;;
26311;SDS011;14019;56.964;24.016;2023-02-23T04:34:16;51.00;;;14.75;;
26311;SDS011;14019;56.964;24.016;2023-02-23T04:37:05;42.78;;;15.00;;
26311;SDS011;14019;56.964;24.016;2023-02-23T04:39:51;44.67;;;15.60;;
26311;SDS011;14019;56.964;24.016;2023-02-23T04:42:38;47.10;;;16.20;;
26311;SDS011;14019;56.964;24.016;2023-02-23T04:45:25;49.42;;;15.98;;
26311;SDS011;14019;56.964;24.016;2023-02-23T04:48:11;46.25;;;16.60;;
26311;SDS011;14019;56.964;24.016;2023-02-23T04:50:57;49.67;;;16.10;;
26311;SDS011;14019;56.964;24.016;2023-02-23T04:53:43;50.92;;;15.88;;
26311;SDS011;14019;56.964;24.016;2023-02-23T04:56:29;48.42;;;15.32;;
26311;SDS011;14019;56.964;24.016;2023-02-23T04:59:16;46.17;;;16.50;;
26311;SDS011;14019;56.964;24.016;2023-02-23T05:02:02;49.58;;;16.58;;
26311;SDS011;14019;56.964;24.016;2023-02-23T05:04:48;57.92;;;16.25;;
26311;SDS011;14019;56.964;24.016;2023-02-23T05:07:35;48.25;;;15.30;;
26311;SDS011;14019;56.964;24.016;2023-02-23T05:10:21;48.65;;;15.73;;
26311;SDS011;14019;56.964;24.016;2023-02-23T05:13:07;45.88;;;15.50;;
26311;SDS011;14019;56.964;24.016;2023-02-23T05:15:56;48.72;;;15.55;;
26311;SDS011;14019;56.964;24.016;2023-02-23T05:18:42;50.33;;;16.27;;
26311;SDS011;14019;56.964;24.016;2023-02-23T05:21:28;50.92;;;15.30;;
26311;SDS011;14019;56.964;24.016;2023-02-23T05:24:15;40.95;;;15.23;;
26311;SDS011;14019;56.964;24.016;2023-02-23T05:27:02;55.38;;;17.52;;
26311;SDS011;14019;56.964;24.016;2023-02-23T05:29:48;48.92;;;15.93;;
26311;SDS011;14019;56.964;24.016;2023-02-23T05:32:34;53.28;;;16.88;;
26311;SDS011;14019;56.964;24.016;2023-02-23T05:35:20;48.90;;;15.73;;
26311;SDS011;14019;56.964;24.016;2023-02-23T05:38:07;48.63;;;15.25;;
26311;SDS011;14019;56.964;24.016;2023-02-23T05:40:53;53.17;;;15.93;;
26311;SDS011;14019;56.964;24.016;2023-02-23T05:43:39;57.45;;;16.92;;
26311;SDS011;14019;56.964;24.016;2023-02-23T05:46:28;48.83;;;15.60;;
26311;SDS011;14019;56.964;24.016;2023-02-23T05:49:14;44.67;;;15.48;;
26311;SDS011;14019;56.964;24.016;2023-02-23T05:52:00;45.55;;;15.82;;
26311;SDS011;14019;56.964;24.016;2023-02-23T05:54:47;52.00;;;16.25;;
26311;SDS011;14019;56.964;24.016;2023-02-23T05:57:32;48.80;;;15.80;;
26311;SDS011;14019;56.964;24.016;2023-02-23T06:00:19;48.22;;;16.05;;
26311;SDS011;14019;56.964;24.016;2023-02-23T06:03:05;47.92;;;15.68;;
26311;SDS011;14019;56.964;24.016;2023-02-23T06:05:52;56.55;;;17.02;;
26311;SDS011;14019;56.964;24.016;2023-02-23T06:08:39;49.95;;;15.10;;
26311;SDS011;14019;56.964;24.016;2023-02-23T06:11:25;48.95;;;16.08;;
26311;SDS011;14019;56.964;24.016;2023-02-23T06:14:12;49.03;;;15.20;;
26311;SDS011;14019;56.964;24.016;2023-02-23T06:16:58;46.22;;;15.30;;
26311;SDS011;14019;56.964;24.016;2023-02-23T06:19:45;53.08;;;16.17;;
26311;SDS011;14019;56.964;24.016;2023-02-23T06:22:31;40.38;;;14.50;;
26311;SDS011;14019;56.964;24.016;2023-02-23T06:25:17;46.00;;;15.55;;
26311;SDS011;14019;56.964;24.016;2023-02-23T06:28:03;43.78;;;14.88;;
26311;SDS011;14019;56.964;24.016;2023-02-23T06:30:53;43.53;;;15.10;;
26311;SDS011;14019;56.964;24.016;2023-02-23T06:33:40;43.85;;;15.45;;
26311;SDS011;14019;56.964;24.016;2023-02-23T06:36:26;53.00;;;16.42;;
26311;SDS011;14019;56.964;24.016;2023-02-23T06:39:12;49.90;;;16.33;;
26311;SDS011;14019;56.964;24.016;2023-02-23T06:41:58;45.03;;;15.57;;
26311;SDS011;14019;56.964;24.016;2023-02-23T06:44:44;48.75;;;16.08;;
26311;SDS011;14019;56.964;24.016;2023-02-23T06:47:30;51.65;;;15.93;;
26311;SDS011;14019;56.964;24.016;2023-02-23T06:50:18;44.78;;;15.40;;
26311;SDS011;14019;56.964;24.016;2023-02-23T06:53:04;51.85;;;16.35;;
26311;SDS011;14019;56.964;24.016;2023-02-23T06:55:50;46.15;;;15.73;;
26311;SDS011;14019;56.964;24.016;2023-02-23T06:58:36;48.50;;;16.20;;
26311;SDS011;14019;56.964;24.016;2023-02-23T07:01:22;45.60;;;14.77;;
26311;SDS011;14019;56.964;24.016;2023-02-23T07:04:12;42.85;;;14.65;;
26311;SDS011;14019;56.964;24.016;2023-02-23T07:07:01;39.05;;;14.18;;
26311;SDS011;14019;56.964;24.016;2023-02-23T07:09:47;44.78;;;14.30;;
26311;SDS011;14019;56.964;24.016;2023-02-23T07:12:33;41.72;;;14.25;;
26311;SDS011;14019;56.964;24.016;2023-02-23T07:15:19;41.58;;;15.60;;
26311;SDS011;14019;56.964;24.016;2023-02-23T07:18:06;44.38;;;14.70;;
26311;SDS011;14019;56.964;24.016;2023-02-23T07:20:52;42.28;;;15.30;;
26311;SDS011;14019;56.964;24.016;2023-02-23T07:23:38;45.10;;;14.02;;
26311;SDS011;14019;56.964;24.016;2023-02-23T07:26:24;38.53;;;13.57;;
26311;SDS011;14019;56.964;24.016;2023-02-23T07:29:11;42.53;;;14.73;;
26311;SDS011;14019;56.964;24.016;2023-02-23T07:31:57;41.22;;;14.48;;
26311;SDS011;14019;56.964;24.016;2023-02-23T07:34:43;39.15;;;13.60;;
26311;SDS011;14019;56.964;24.016;2023-02-23T07:37:30;38.88;;;14.10;;
26311;SDS011;14019;56.964;24.016;2023-02-23T07:40:15;36.63;;;13.38;;
26311;SDS011;14019;56.964;24.016;2023-02-23T07:43:03;43.95;;;13.95;;
26311;SDS011;14019;56.964;24.016;2023-02-23T07:45:49;37.72;;;13.88;;
26311;SDS011;14019;56.964;24.016;2023-02-23T07:48:35;36.45;;;13.40;;
26311;SDS011;14019;56.964;24.016;2023-02-23T07:51:22;41.30;;;13.57;;
26311;SDS011;14019;56.964;24.016;2023-02-23T07:54:09;43.45;;;13.75;;
26311;SDS011;14019;56.964;24.016;2023-02-23T07:56:55;35.78;;;13.43;;
26311;SDS011;14019;56.964;24.016;2023-02-23T07:59:41;41.22;;;14.82;;
26311;SDS011;14019;56.964;24.016;2023-02-23T08:02:28;37.22;;;13.98;;
26311;SDS011;14019;56.964;24.016;2023-02-23T08:05:14;37.90;;;13.60;;
26311;SDS011;14019;56.964;24.016;2023-02-23T08:08:00;39.30;;;13.93;;
26311;SDS011;14019;56.964;24.016;2023-02-23T08:10:46;44.85;;;14.20;;
26311;SDS011;14019;56.964;24.016;2023-02-23T08:13:34;38.72;;;13.65;;
26311;SDS011;14019;56.964;24.016;2023-02-23T08:16:22;36.45;;;13.68;;
26311;SDS011;14019;56.964;24.016;2023-02-23T08:19:08;34.25;;;14.27;;
26311;SDS011;14019;56.964;24.016;2023-02-23T08:21:54;37.42;;;13.68;;
26311;SDS011;14019;56.964;24.016;2023-02-23T08:24:41;38.90;;;14.27;;
26311;SDS011;14019;56.964;24.016;2023-02-23T08:27:27;43.75;;;14.77;;
26311;SDS011;14019;56.964;24.016;2023-02-23T08:30:13;37.92;;;13.93;;
26311;SDS011;14019;56.964;24.016;2023-02-23T08:32:59;39.33;;;13.15;;
26311;SDS011;14019;56.964;24.016;2023-02-23T08:35:46;41.40;;;13.63;;
26311;SDS011;14019;56.964;24.016;2023-02-23T08:38:31;39.80;;;14.48;;
26311;SDS011;14019;56.964;24.016;2023-02-23T08:41:20;39.78;;;13.80;;
26311;SDS011;14019;56.964;24.016;2023-02-23T08:44:06;39.63;;;13.32;;
26311;SDS011;14019;56.964;24.016;2023-02-23T08:46:53;37.45;;;14.25;;
26311;SDS011;14019;56.964;24.016;2023-02-23T08:49:39;35.70;;;14.05;;
26311;SDS011;14019;56.964;24.016;2023-02-23T08:52:25;35.67;;;13.43;;
26311;SDS011;14019;56.964;24.016;2023-02-23T08:55:11;40.17;;;13.48;;
26311;SDS011;14019;56.964;24.016;2023-02-23T08:58:00;38.55;;;14.25;;
26311;SDS011;14019;56.964;24.016;2023-02-23T09:00:46;36.55;;;14.35;;
26311;SDS011;14019;56.964;24.016;2023-02-23T09:03:33;41.20;;;14.50;;
26311;SDS011;14019;56.964;24.016;2023-02-23T09:06:23;34.95;;;13.98;;
26311;SDS011;14019;56.964;24.016;2023-02-23T09:09:10;35.78;;;14.00;;
26311;SDS011;14019;56.964;24.016;2023-02-23T09:11:56;35.60;;;12.75;;
26311;SDS011;14019;56.964;24.016;2023-02-23T09:14:44;39.08;;;13.45;;
26311;SDS011;14019;56.964;24.016;2023-02-23T09:17:29;34.30;;;12.98;;
26311;SDS011;14019;56.964;24.016;2023-02-23T09:20:16;39.75;;;13.30;;
26311;SDS011;14019;56.964;24.016;2023-02-23T09:23:02;33.20;;;12.80;;
26311;SDS011;14019;56.964;24.016;2023-02-23T09:25:48;33.83;;;13.02;;
26311;SDS011;14019;56.964;24.016;2023-02-23T09:28:34;32.53;;;12.60;;
26311;SDS011;14019;56.964;24.016;2023-02-23T09:31:22;32.95;;;13.38;;
26311;SDS011;14019;56.964;24.016;2023-02-23T09:34:09;33.00;;;12.60;;
26311;SDS011;14019;56.964;24.016;2023-02-23T09:36:56;32.20;;;13.35;;
26311;SDS011;14019;56.964;24.016;2023-02-23T09:39:42;32.78;;;13.43;;
26311;SDS011;14019;56.964;24.016;2023-02-23T09:42:38;36.75;;;14.32;;
26311;SDS011;14019;56.964;24.016;2023-02-23T09:46:16;38.92;;;13.40;;
26311;SDS011;14019;56.964;24.016;2023-02-23T09:49:15;36.03;;;13.35;;
26311;SDS011;14019;56.964;24.016;2023-02-23T09:52:03;33.83;;;13.70;;
26311;SDS011;14019;56.964;24.016;2023-02-23T09:54:56;33.63;;;13.02;;
26311;SDS011;14019;56.964;24.016;2023-02-23T09:57:43;36.47;;;13.48;;
26311;SDS011;14019;56.964;24.016;2023-02-23T10:00:33;36.40;;;13.63;;
26311;SDS011;14019;56.964;24.016;2023-02-23T10:03:27;32.72;;;13.32;;
26311;SDS011;14019;56.964;24.016;2023-02-23T10:06:16;31.67;;;13.07;;
26311;SDS011;14019;56.964;24.016;2023-02-23T10:09:07;34.65;;;13.35;;
26311;SDS011;14019;56.964;24.016;2023-02-23T10:12:09;36.50;;;12.70;;
26311;SDS011;14019;56.964;24.016;2023-02-23T10:24:25;34.95;;;13.20;;
26311;SDS011;14019;56.964;24.016;2023-02-23T10:27:43;35.38;;;13.70;;
26311;SDS011;14019;56.964;24.016;2023-02-23T10:30:32;31.70;;;12.70;;
26311;SDS011;14019;56.964;24.016;2023-02-23T10:33:23;30.73;;;11.98;;
26311;SDS011;14019;56.964;24.016;2023-02-23T10:36:14;29.65;;;12.18;;
26311;SDS011;14019;56.964;24.016;2023-02-23T10:39:07;33.60;;;12.87;;
26311;SDS011;14019;56.964;24.016;2023-02-23T10:41:53;31.63;;;12.35;;
26311;SDS011;14019;56.964;24.016;2023-02-23T10:44:43;31.30;;;12.35;;
26311;SDS011;14019;56.964;24.016;2023-02-23T10:47:31;33.53;;;11.77;;
26311;SDS011;14019;56.964;24.016;2023-02-23T10:50:20;31.65;;;12.45;;
26311;SDS011;14019;56.964;24.016;2023-02-23T10:56:02;34.08;;;12.63;;
26311;SDS011;14019;56.964;24.016;2023-02-23T10:58:56;30.63;;;11.45;;
26311;SDS011;14019;56.964;24.016;2023-02-23T11:01:43;26.27;;;11.32;;
26311;SDS011;14019;56.964;24.016;2023-02-23T11:04:54;27.90;;;12.02;;
26311;SDS011;14019;56.964;24.016;2023-02-23T11:07:41;30.55;;;11.85;;
26311;SDS011;14019;56.964;24.016;2023-02-23T11:10:29;26.33;;;11.05;;
26311;SDS011;14019;56.964;24.016;2023-02-23T11:13:22;29.33;;;11.70;;
26311;SDS011;14019;56.964;24.016;2023-02-23T11:16:28;27.60;;;11.35;;
26311;SDS011;14019;56.964;24.016;2023-02-23T11:19:20;26.60;;;11.55;;
26311;SDS011;14019;56.964;24.016;2023-02-23T11:22:18;25.50;;;11.00;;
26311;SDS011;14019;56.964;24.016;2023-02-23T11:25:51;30.33;;;12.10;;
26311;SDS011;14019;56.964;24.016;2023-02-23T11:28:18;27.08;;;11.35;;
26311;SDS011;14019;56.964;24.016;2023-02-23T11:31:19;28.35;;;11.40;;
26311;SDS011;14019;56.964;24.016;2023-02-23T11:34:22;26.58;;;10.75;;
26311;SDS011;14019;56.964;24.016;2023-02-23T11:40:27;26.30;;;10.80;;
26311;SDS011;14019;56.964;24.016;2023-02-23T11:43:15;29.58;;;11.23;;
26311;SDS011;14019;56.964;24.016;2023-02-23T11:46:03;27.80;;;10.98;;
26311;SDS011;14019;56.964;24.016;2023-02-23T11:51:44;32.47;;;11.50;;
26311;SDS011;14019;56.964;24.016;2023-02-23T11:54:33;27.77;;;11.60;;
26311;SDS011;14019;56.964;24.016;2023-02-23T11:57:23;25.15;;;10.68;;
26311;SDS011;14019;56.964;24.016;2023-02-23T12:00:20;25.05;;;11.07;;
26311;SDS011;14019;56.964;24.016;2023-02-23T12:03:11;24.40;;;10.52;;
26311;SDS011;14019;56.964;24.016;2023-02-23T12:06:03;28.15;;;11.75;;
26311;SDS011;14019;56.964;24.016;2023-02-23T12:08:50;28.67;;;11.82;;
26311;SDS011;14019;56.964;24.016;2023-02-23T12:11:41;30.23;;;11.70;;
26311;SDS011;14019;56.964;24.016;2023-02-23T12:17:43;26.77;;;11.32;;
26311;SDS011;14019;56.964;24.016;2023-02-23T12:20:35;30.00;;;12.00;;
26311;SDS011;14019;56.964;24.016;2023-02-23T12:23:25;29.52;;;11.50;;
26311;SDS011;14019;56.964;24.016;2023-02-23T12:26:18;26.55;;;11.68;;
26311;SDS011;14019;56.964;24.016;2023-02-23T12:29:21;30.42;;;12.23;;
26311;SDS011;14019;56.964;24.016;2023-02-23T12:32:19;30.05;;;11.57;;
26311;SDS011;14019;56.964;24.016;2023-02-23T12:35:18;26.35;;;11.32;;
26311;SDS011;14019;56.964;24.016;2023-02-23T12:38:20;28.27;;;12.18;;
26311;SDS011;14019;56.964;24.016;2023-02-23T12:41:33;24.08;;;11.50;;
26311;SDS011;14019;56.964;24.016;2023-02-23T12:44:39;27.35;;;11.90;;
26311;SDS011;14019;56.964;24.016;2023-02-23T12:47:51;30.45;;;12.48;;
26311;SDS011;14019;56.964;24.016;2023-02-23T12:50:48;27.80;;;11.80;;
26311;SDS011;14019;56.964;24.016;2023-02-23T12:53:41;27.13;;;11.57;;
26311;SDS011;14019;56.964;24.016;2023-02-23T13:02:42;29.45;;;12.40;;
26311;SDS011;14019;56.964;24.016;2023-02-23T13:09:26;28.70;;;11.80;;
26311;SDS011;14019;56.964;24.016;2023-02-23T13:12:35;29.75;;;11.70;;
26311;SDS011;14019;56.964;24.016;2023-02-23T13:28:52;27.10;;;11.63;;
26311;SDS011;14019;56.964;24.016;2023-02-23T13:31:45;28.30;;;11.25;;
26311;SDS011;14019;56.964;24.016;2023-02-23T13:34:43;27.90;;;11.85;;
26311;SDS011;14019;56.964;24.016;2023-02-23T13:37:34;31.67;;;12.73;;
26311;SDS011;14019;56.964;24.016;2023-02-23T13:40:32;28.13;;;11.38;;
26311;SDS011;14019;56.964;24.016;2023-02-23T13:52:42;33.10;;;11.80;;
26311;SDS011;14019;56.964;24.016;2023-02-23T13:58:33;28.33;;;12.32;;
26311;SDS011;14019;56.964;24.016;2023-02-23T14:01:20;27.35;;;12.05;;
26311;SDS011;14019;56.964;24.016;2023-02-23T14:04:14;28.85;;;11.95;;
26311;SDS011;14019;56.964;24.016;2023-02-23T14:07:03;27.42;;;11.73;;
26311;SDS011;14019;56.964;24.016;2023-02-23T14:09:53;23.75;;;11.45;;
26311;SDS011;14019;56.964;24.016;2023-02-23T14:13:03;27.00;;;11.30;;
26311;SDS011;14019;56.964;24.016;2023-02-23T14:18:56;25.65;;;11.57;;
26311;SDS011;14019;56.964;24.016;2023-02-23T14:22:10;25.75;;;10.93;;
26311;SDS011;14019;56.964;24.016;2023-02-23T14:28:03;28.45;;;10.68;;
26311;SDS011;14019;56.964;24.016;2023-02-23T14:33:59;25.80;;;11.18;;
26311;SDS011;14019;56.964;24.016;2023-02-23T14:36:48;29.42;;;10.73;;
26311;SDS011;14019;56.964;24.016;2023-02-23T14:39:37;24.35;;;10.80;;
26311;SDS011;14019;56.964;24.016;2023-02-23T14:42:26;28.08;;;12.23;;
26311;SDS011;14019;56.964;24.016;2023-02-23T14:45:35;25.90;;;10.65;;
26311;SDS011;14019;56.964;24.016;2023-02-23T14:48:22;25.17;;;11.05;;
26311;SDS011;14019;56.964;24.016;2023-02-23T14:54:40;28.00;;;11.43;;
26311;SDS011;14019;56.964;24.016;2023-02-23T14:57:27;26.48;;;10.98;;
26311;SDS011;14019;56.964;24.016;2023-02-23T15:03:06;25.52;;;10.95;;
26311;SDS011;14019;56.964;24.016;2023-02-23T15:05:57;26.60;;;11.43;;
26311;SDS011;14019;56.964;24.016;2023-02-23T15:08:47;25.38;;;10.82;;
26311;SDS011;14019;56.964;24.016;2023-02-23T15:11:35;24.80;;;11.18;;
26311;SDS011;14019;56.964;24.016;2023-02-23T15:14:21;25.70;;;10.80;;
26311;SDS011;14019;56.964;24.016;2023-02-23T15:17:47;27.65;;;11.27;;
26311;SDS011;14019;56.964;24.016;2023-02-23T15:20:34;25.98;;;10.82;;
26311;SDS011;14019;56.964;24.016;2023-02-23T15:23:21;25.15;;;10.27;;
26311;SDS011;14019;56.964;24.016;2023-02-23T15:29:29;24.48;;;10.55;;
26311;SDS011;14019;56.964;24.016;2023-02-23T15:32:22;25.77;;;10.75;;
26311;SDS011;14019;56.964;24.016;2023-02-23T15:35:10;22.80;;;10.73;;
26311;SDS011;14019;56.964;24.016;2023-02-23T15:37:57;27.35;;;10.65;;
26311;SDS011;14019;56.964;24.016;2023-02-23T15:41:03;24.77;;;10.88;;
26311;SDS011;14019;56.964;24.016;2023-02-23T15:43:51;28.52;;;11.57;;
26311;SDS011;14019;56.964;24.016;2023-02-23T15:46:38;27.95;;;11.82;;
26311;SDS011;14019;56.964;24.016;2023-02-23T15:49:27;27.08;;;11.35;;
26311;SDS011;14019;56.964;24.016;2023-02-23T15:52:17;30.63;;;11.77;;
26311;SDS011;14019;56.964;24.016;2023-02-23T15:55:07;25.92;;;10.85;;
26311;SDS011;14019;56.964;24.016;2023-02-23T15:57:58;28.15;;;11.63;;
26311;SDS011;14019;56.964;24.016;2023-02-23T16:00:49;27.27;;;10.88;;
26311;SDS011;14019;56.964;24.016;2023-02-23T16:03:40;25.88;;;11.27;;
26311;SDS011;14019;56.964;24.016;2023-02-23T16:06:44;30.75;;;11.85;;
26311;SDS011;14019;56.964;24.016;2023-02-23T16:09:37;27.77;;;11.18;;
26311;SDS011;14019;56.964;24.016;2023-02-23T16:12:34;24.58;;;10.95;;
26311;SDS011;14019;56.964;24.016;2023-02-23T16:15:31;26.73;;;11.15;;
26311;SDS011;14019;56.964;24.016;2023-02-23T16:18:21;25.85;;;10.15;;
26311;SDS011;14019;56.964;24.016;2023-02-23T16:21:19;27.10;;;10.88;;
26311;SDS011;14019;56.964;24.016;2023-02-23T16:24:08;22.63;;;10.15;;
26311;SDS011;14019;56.964;24.016;2023-02-23T16:26:59;28.02;;;11.13;;
26311;SDS011;14019;56.964;24.016;2023-02-23T16:29:46;25.88;;;10.90;;
26311;SDS011;14019;56.964;24.016;2023-02-23T16:32:44;24.83;;;10.90;;
26311;SDS011;14019;56.964;24.016;2023-02-23T16:35:48;27.08;;;11.60;;
26311;SDS011;14019;56.964;24.016;2023-02-23T16:41:24;23.92;;;10.38;;
26311;SDS011;14019;56.964;24.016;2023-02-23T16:44:14;26.92;;;11.60;;
26311;SDS011;14019;56.964;24.016;2023-02-23T16:47:32;31.77;;;11.52;;
26311;SDS011;14019;56.964;24.016;2023-02-23T16:50:21;26.43;;;11.40;;
26311;SDS011;14019;56.964;24.016;2023-02-23T16:53:09;26.70;;;11.68;;
26311;SDS011;14019;56.964;24.016;2023-02-23T16:55:56;26.23;;;10.98;;
26311;SDS011;14019;56.964;24.016;2023-02-23T16:58:46;27.25;;;11.52;;
26311;SDS011;14019;56.964;24.016;2023-02-23T17:01:38;26.90;;;11.77;;
26311;SDS011;14019;56.964;24.016;2023-02-23T17:04:25;27.67;;;11.90;;
26311;SDS011;14019;56.964;24.016;2023-02-23T17:07:12;29.17;;;12.40;;
26311;SDS011;14019;56.964;24.016;2023-02-23T17:09:58;27.23;;;11.75;;
26311;SDS011;14019;56.964;24.016;2023-02-23T17:12:44;25.73;;;11.32;;
26311;SDS011;14019;56.964;24.016;2023-02-23T17:15:37;28.33;;;11.90;;
26311;SDS011;14019;56.964;24.016;2023-02-23T17:18:27;26.80;;;10.82;;
26311;SDS011;14019;56.964;24.016;2023-02-23T17:21:14;27.52;;;11.88;;
26311;SDS011;14019;56.964;24.016;2023-02-23T17:26:54;25.50;;;11.02;;
26311;SDS011;14019;56.964;24.016;2023-02-23T17:29:41;26.90;;;11.02;;
26311;SDS011;14019;56.964;24.016;2023-02-23T17:32:27;25.08;;;10.85;;
26311;SDS011;14019;56.964;24.016;2023-02-23T17:35:14;26.10;;;11.35;;
26311;SDS011;14019;56.964;24.016;2023-02-23T17:38:02;28.35;;;11.43;;
26311;SDS011;14019;56.964;24.016;2023-02-23T17:40:49;27.10;;;11.85;;
26311;SDS011;14019;56.964;24.016;2023-02-23T17:43:35;26.88;;;11.00;;
26311;SDS011;14019;56.964;24.016;2023-02-23T17:46:31;23.38;;;10.38;;
26311;SDS011;14019;56.964;24.016;2023-02-23T17:49:17;28.20;;;11.70;;
26311;SDS011;14019;56.964;24.016;2023-02-23T17:52:06;25.42;;;10.80;;
26311;SDS011;14019;56.964;24.016;2023-02-23T17:54:53;30.88;;;11.15;;
26311;SDS011;14019;56.964;24.016;2023-02-23T17:57:43;24.23;;;10.80;;
26311;SDS011;14019;56.964;24.016;2023-02-23T18:00:30;23.90;;;10.80;;
26311;SDS011;14019;56.964;24.016;2023-02-23T18:03:22;24.10;;;9.75;;
26311;SDS011;14019;56.964;24.016;2023-02-23T18:06:11;23.77;;;10.93;;
26311;SDS011;14019;56.964;24.016;2023-02-23T18:08:59;25.63;;;10.50;;
26311;SDS011;14019;56.964;24.016;2023-02-23T18:11:46;23.40;;;10.23;;
26311;SDS011;14019;56.964;24.016;2023-02-23T18:14:33;23.63;;;10.23;;
26311;SDS011;14019;56.964;24.016;2023-02-23T18:17:19;26.55;;;9.88;;
26311;SDS011;14019;56.964;24.016;2023-02-23T18:20:05;27.45;;;11.05;;
26311;SDS011;14019;56.964;24.016;2023-02-23T18:22:52;24.20;;;10.32;;
26311;SDS011;14019;56.964;24.016;2023-02-23T18:25:38;25.77;;;10.57;;
26311;SDS011;14019;56.964;24.016;2023-02-23T18:28:24;22.25;;;9.90;;
26311;SDS011;14019;56.964;24.016;2023-02-23T18:31:11;22.95;;;9.77;;
26311;SDS011;14019;56.964;24.016;2023-02-23T18:34:00;28.50;;;10.35;;
26311;SDS011;14019;56.964;24.016;2023-02-23T18:39:58;20.05;;;9.48;;
26311;SDS011;14019;56.964;24.016;2023-02-23T18:42:44;22.50;;;10.48;;
26311;SDS011;14019;56.964;24.016;2023-02-23T18:45:38;24.17;;;10.90;;
26311;SDS011;14019;56.964;24.016;2023-02-23T18:48:25;21.20;;;9.85;;
26311;SDS011;14019;56.964;24.016;2023-02-23T18:51:20;23.33;;;10.15;;
26311;SDS011;14019;56.964;24.016;2023-02-23T18:54:09;21.38;;;9.70;;
26311;SDS011;14019;56.964;24.016;2023-02-23T18:57:01;25.58;;;10.00;;
26311;SDS011;14019;56.964;24.016;2023-02-23T19:00:00;22.15;;;9.50;;
26311;SDS011;14019;56.964;24.016;2023-02-23T19:02:47;22.88;;;9.90;;
26311;SDS011;14019;56.964;24.016;2023-02-23T19:05:33;23.38;;;10.13;;
26311;SDS011;14019;56.964;24.016;2023-02-23T19:08:20;22.52;;;9.93;;
26311;SDS011;14019;56.964;24.016;2023-02-23T19:11:07;24.23;;;10.10;;